sensor_id;sensor_type;location;lat;lon;timestamp;P1;durP1;ratioP1;P2;durP2;ratioP2
69369;SDS011;56530;42.640;23.372;2023-06-05T00:01:53;8.70;;;7.90;;
69369;SDS011;56530;42.640;23.372;2023-06-05T00:04:19;10.43;;;8.60;;
69369;SDS011;56530;42.640;23.372;2023-06-05T00:06:46;9.90;;;7.43;;
69369;SDS011;56530;42.640;23.372;2023-06-05T00:09:11;10.77;;;7.90;;
69369;SDS011;56530;42.640;23.372;2023-06-05T00:11:38;8.25;;;7.35;;
69369;SDS011;56530;42.640;23.372;2023-06-05T00:14:04;8.35;;;7.25;;
69369;SDS011;56530;42.640;23.372;2023-06-05T00:16:30;8.73;;;7.37;;
69369;SDS011;56530;42.640;23.372;2023-06-05T00:18:56;15.95;;;7.55;;
69369;SDS011;56530;42.640;23.372;2023-06-05T00:21:21;8.38;;;7.55;;
69369;SDS011;56530;42.640;23.372;2023-06-05T00:23:47;8.45;;;7.47;;
69369;SDS011;56530;42.640;23.372;2023-06-05T00:26:12;7.30;;;6.60;;
69369;SDS011;56530;42.640;23.372;2023-06-05T00:28:38;8.53;;;7.80;;
69369;SDS011;56530;42.640;23.372;2023-06-05T00:31:04;8.53;;;7.63;;
69369;SDS011;56530;42.640;23.372;2023-06-05T00:33:29;8.38;;;7.57;;
69369;SDS011;56530;42.640;23.372;2023-06-05T00:35:55;9.75;;;7.68;;
69369;SDS011;56530;42.640;23.372;2023-06-05T00:38:21;8.68;;;7.88;;
69369;SDS011;56530;42.640;23.372;2023-06-05T00:40:46;10.37;;;9.37;;
69369;SDS011;56530;42.640;23.372;2023-06-05T00:43:12;9.60;;;8.60;;
69369;SDS011;56530;42.640;23.372;2023-06-05T00:45:37;12.83;;;9.10;;
69369;SDS011;56530;42.640;23.372;2023-06-05T00:48:02;9.17;;;8.20;;
69369;SDS011;56530;42.640;23.372;2023-06-05T00:50:28;8.67;;;7.57;;
69369;SDS011;56530;42.640;23.372;2023-06-05T00:52:57;9.57;;;7.60;;
69369;SDS011;56530;42.640;23.372;2023-06-05T00:55:23;8.68;;;7.82;;
69369;SDS011;56530;42.640;23.372;2023-06-05T00:57:49;8.38;;;7.50;;
69369;SDS011;56530;42.640;23.372;2023-06-05T01:00:14;9.07;;;8.10;;
69369;SDS011;56530;42.640;23.372;2023-06-05T01:02:40;9.27;;;7.57;;
69369;SDS011;56530;42.640;23.372;2023-06-05T01:05:06;8.70;;;7.90;;
69369;SDS011;56530;42.640;23.372;2023-06-05T01:07:32;9.17;;;7.83;;
69369;SDS011;56530;42.640;23.372;2023-06-05T01:10:02;8.95;;;8.05;;
69369;SDS011;56530;42.640;23.372;2023-06-05T01:12:32;9.83;;;7.27;;
69369;SDS011;56530;42.640;23.372;2023-06-05T01:15:19;7.78;;;7.07;;
69369;SDS011;56530;42.640;23.372;2023-06-05T01:17:53;8.27;;;7.25;;
69369;SDS011;56530;42.640;23.372;2023-06-05T01:20:30;16.38;;;7.75;;
69369;SDS011;56530;42.640;23.372;2023-06-05T01:22:59;7.53;;;6.78;;
69369;SDS011;56530;42.640;23.372;2023-06-05T01:25:26;9.40;;;7.20;;
69369;SDS011;56530;42.640;23.372;2023-06-05T01:33:11;9.50;;;8.25;;
69369;SDS011;56530;42.640;23.372;2023-06-05T01:35:42;9.65;;;8.45;;
69369;SDS011;56530;42.640;23.372;2023-06-05T01:38:09;9.88;;;8.73;;
69369;SDS011;56530;42.640;23.372;2023-06-05T01:40:36;8.80;;;7.90;;
69369;SDS011;56530;42.640;23.372;2023-06-05T01:43:02;8.97;;;8.00;;
69369;SDS011;56530;42.640;23.372;2023-06-05T01:45:30;9.23;;;8.33;;
69369;SDS011;56530;42.640;23.372;2023-06-05T01:47:56;12.57;;;9.60;;
69369;SDS011;56530;42.640;23.372;2023-06-05T01:50:21;12.57;;;8.82;;
69369;SDS011;56530;42.640;23.372;2023-06-05T01:52:47;9.50;;;8.60;;
69369;SDS011;56530;42.640;23.372;2023-06-05T01:55:17;13.20;;;9.70;;
69369;SDS011;56530;42.640;23.372;2023-06-05T01:57:48;11.77;;;9.93;;
69369;SDS011;56530;42.640;23.372;2023-06-05T02:00:14;10.07;;;9.23;;
69369;SDS011;56530;42.640;23.372;2023-06-05T02:02:41;10.10;;;9.15;;
69369;SDS011;56530;42.640;23.372;2023-06-05T02:05:13;9.18;;;8.30;;
69369;SDS011;56530;42.640;23.372;2023-06-05T02:07:40;12.00;;;8.57;;
69369;SDS011;56530;42.640;23.372;2023-06-05T02:10:07;10.10;;;8.68;;
69369;SDS011;56530;42.640;23.372;2023-06-05T02:12:33;9.73;;;8.73;;
69369;SDS011;56530;42.640;23.372;2023-06-05T02:14:59;10.75;;;8.82;;
69369;SDS011;56530;42.640;23.372;2023-06-05T02:17:25;9.60;;;8.82;;
69369;SDS011;56530;42.640;23.372;2023-06-05T02:19:51;10.20;;;9.27;;
69369;SDS011;56530;42.640;23.372;2023-06-05T02:22:17;10.85;;;9.75;;
69369;SDS011;56530;42.640;23.372;2023-06-05T02:24:43;11.17;;;10.17;;
69369;SDS011;56530;42.640;23.372;2023-06-05T02:27:09;11.50;;;9.23;;
69369;SDS011;56530;42.640;23.372;2023-06-05T02:29:36;12.98;;;9.95;;
69369;SDS011;56530;42.640;23.372;2023-06-05T02:32:02;10.25;;;9.32;;
69369;SDS011;56530;42.640;23.372;2023-06-05T02:34:31;11.77;;;10.02;;
69369;SDS011;56530;42.640;23.372;2023-06-05T02:36:57;14.00;;;11.07;;
69369;SDS011;56530;42.640;23.372;2023-06-05T02:39:23;11.27;;;9.15;;
69369;SDS011;56530;42.640;23.372;2023-06-05T02:41:48;15.13;;;9.68;;
69369;SDS011;56530;42.640;23.372;2023-06-05T02:44:14;11.90;;;10.40;;
69369;SDS011;56530;42.640;23.372;2023-06-05T02:46:40;10.73;;;9.73;;
69369;SDS011;56530;42.640;23.372;2023-06-05T02:49:05;11.30;;;10.30;;
69369;SDS011;56530;42.640;23.372;2023-06-05T02:51:30;10.63;;;9.73;;
69369;SDS011;56530;42.640;23.372;2023-06-05T02:53:56;10.70;;;9.67;;
69369;SDS011;56530;42.640;23.372;2023-06-05T02:56:22;12.40;;;10.15;;
69369;SDS011;56530;42.640;23.372;2023-06-05T02:58:51;12.38;;;10.77;;
69369;SDS011;56530;42.640;23.372;2023-06-05T03:01:16;10.70;;;9.70;;
69369;SDS011;56530;42.640;23.372;2023-06-05T03:03:42;11.03;;;10.03;;
69369;SDS011;56530;42.640;23.372;2023-06-05T03:06:07;11.43;;;10.27;;
69369;SDS011;56530;42.640;23.372;2023-06-05T03:08:33;10.30;;;9.27;;
69369;SDS011;56530;42.640;23.372;2023-06-05T03:11:03;10.43;;;9.38;;
69369;SDS011;56530;42.640;23.372;2023-06-05T03:13:29;9.70;;;8.63;;
69369;SDS011;56530;42.640;23.372;2023-06-05T03:15:55;10.63;;;8.63;;
69369;SDS011;56530;42.640;23.372;2023-06-05T03:18:26;9.80;;;8.30;;
69369;SDS011;56530;42.640;23.372;2023-06-05T03:20:54;8.70;;;7.70;;
69369;SDS011;56530;42.640;23.372;2023-06-05T03:23:24;40.60;;;32.30;;
69369;SDS011;56530;42.640;23.372;2023-06-05T03:25:51;23.10;;;20.23;;
69369;SDS011;56530;42.640;23.372;2023-06-05T03:28:16;12.40;;;11.10;;
69369;SDS011;56530;42.640;23.372;2023-06-05T03:30:45;9.52;;;8.48;;
69369;SDS011;56530;42.640;23.372;2023-06-05T03:33:11;8.20;;;7.50;;
69369;SDS011;56530;42.640;23.372;2023-06-05T03:35:38;9.27;;;7.55;;
69369;SDS011;56530;42.640;23.372;2023-06-05T03:38:05;9.38;;;7.43;;
69369;SDS011;56530;42.640;23.372;2023-06-05T03:40:30;9.93;;;7.30;;
69369;SDS011;56530;42.640;23.372;2023-06-05T03:42:56;9.97;;;7.47;;
69369;SDS011;56530;42.640;23.372;2023-06-05T03:45:21;8.87;;;7.20;;
69369;SDS011;56530;42.640;23.372;2023-06-05T03:47:47;13.30;;;8.10;;
69369;SDS011;56530;42.640;23.372;2023-06-05T03:50:14;9.23;;;7.80;;
69369;SDS011;56530;42.640;23.372;2023-06-05T03:52:42;10.82;;;7.90;;
69369;SDS011;56530;42.640;23.372;2023-06-05T03:55:08;8.18;;;7.38;;
69369;SDS011;56530;42.640;23.372;2023-06-05T03:57:35;11.20;;;8.35;;
69369;SDS011;56530;42.640;23.372;2023-06-05T04:00:03;10.90;;;9.00;;
69369;SDS011;56530;42.640;23.372;2023-06-05T04:02:30;9.13;;;8.23;;
69369;SDS011;56530;42.640;23.372;2023-06-05T04:04:55;16.48;;;9.93;;
69369;SDS011;56530;42.640;23.372;2023-06-05T04:07:21;17.17;;;9.90;;
69369;SDS011;56530;42.640;23.372;2023-06-05T04:09:46;10.03;;;9.03;;
69369;SDS011;56530;42.640;23.372;2023-06-05T04:12:11;10.17;;;8.47;;
69369;SDS011;56530;42.640;23.372;2023-06-05T04:14:39;10.13;;;8.50;;
69369;SDS011;56530;42.640;23.372;2023-06-05T04:17:04;9.73;;;8.68;;
69369;SDS011;56530;42.640;23.372;2023-06-05T04:19:30;12.17;;;8.90;;
69369;SDS011;56530;42.640;23.372;2023-06-05T04:21:56;9.43;;;8.43;;
69369;SDS011;56530;42.640;23.372;2023-06-05T04:24:21;12.07;;;8.83;;
69369;SDS011;56530;42.640;23.372;2023-06-05T04:26:47;13.33;;;9.03;;
69369;SDS011;56530;42.640;23.372;2023-06-05T04:29:12;13.10;;;9.43;;
69369;SDS011;56530;42.640;23.372;2023-06-05T04:31:42;11.13;;;9.15;;
69369;SDS011;56530;42.640;23.372;2023-06-05T04:34:08;14.43;;;9.20;;
69369;SDS011;56530;42.640;23.372;2023-06-05T04:36:33;10.68;;;9.23;;
69369;SDS011;56530;42.640;23.372;2023-06-05T04:38:59;10.60;;;8.98;;
69369;SDS011;56530;42.640;23.372;2023-06-05T04:41:26;12.13;;;9.20;;
69369;SDS011;56530;42.640;23.372;2023-06-05T04:43:55;11.82;;;9.82;;
69369;SDS011;56530;42.640;23.372;2023-06-05T04:46:22;10.25;;;9.25;;
69369;SDS011;56530;42.640;23.372;2023-06-05T04:48:48;12.18;;;10.75;;
69369;SDS011;56530;42.640;23.372;2023-06-05T04:51:13;11.33;;;9.90;;
69369;SDS011;56530;42.640;23.372;2023-06-05T04:53:39;12.30;;;10.50;;
69369;SDS011;56530;42.640;23.372;2023-06-05T04:56:06;16.73;;;10.82;;
69369;SDS011;56530;42.640;23.372;2023-06-05T04:58:32;12.13;;;10.47;;
69369;SDS011;56530;42.640;23.372;2023-06-05T05:00:57;13.10;;;10.13;;
69369;SDS011;56530;42.640;23.372;2023-06-05T05:03:30;16.15;;;10.43;;
69369;SDS011;56530;42.640;23.372;2023-06-05T05:05:56;10.60;;;9.65;;
69369;SDS011;56530;42.640;23.372;2023-06-05T05:08:21;11.13;;;9.93;;
69369;SDS011;56530;42.640;23.372;2023-06-05T05:10:46;11.27;;;10.27;;
69369;SDS011;56530;42.640;23.372;2023-06-05T05:13:12;13.77;;;11.03;;
69369;SDS011;56530;42.640;23.372;2023-06-05T05:15:37;13.10;;;11.80;;
69369;SDS011;56530;42.640;23.372;2023-06-05T05:18:02;15.27;;;12.13;;
69369;SDS011;56530;42.640;23.372;2023-06-05T05:20:28;17.47;;;12.10;;
69369;SDS011;56530;42.640;23.372;2023-06-05T05:22:54;12.68;;;11.30;;
69369;SDS011;56530;42.640;23.372;2023-06-05T05:25:20;13.60;;;11.57;;
69369;SDS011;56530;42.640;23.372;2023-06-05T05:27:46;13.77;;;12.30;;
69369;SDS011;56530;42.640;23.372;2023-06-05T05:30:12;13.97;;;12.57;;
69369;SDS011;56530;42.640;23.372;2023-06-05T05:32:38;14.65;;;12.35;;
69369;SDS011;56530;42.640;23.372;2023-06-05T05:35:03;14.07;;;12.40;;
69369;SDS011;56530;42.640;23.372;2023-06-05T05:37:29;13.95;;;12.52;;
69369;SDS011;56530;42.640;23.372;2023-06-05T05:39:55;14.70;;;13.10;;
69369;SDS011;56530;42.640;23.372;2023-06-05T05:42:20;14.15;;;12.52;;
69369;SDS011;56530;42.640;23.372;2023-06-05T05:44:46;15.07;;;12.10;;
69369;SDS011;56530;42.640;23.372;2023-06-05T05:47:11;12.63;;;11.43;;
69369;SDS011;56530;42.640;23.372;2023-06-05T05:49:37;16.77;;;12.90;;
69369;SDS011;56530;42.640;23.372;2023-06-05T05:52:02;15.20;;;12.37;;
69369;SDS011;56530;42.640;23.372;2023-06-05T05:54:28;14.82;;;13.40;;
69369;SDS011;56530;42.640;23.372;2023-06-05T05:56:54;15.10;;;12.93;;
69369;SDS011;56530;42.640;23.372;2023-06-05T05:59:19;14.83;;;13.30;;
69369;SDS011;56530;42.640;23.372;2023-06-05T06:01:46;16.55;;;12.00;;
69369;SDS011;56530;42.640;23.372;2023-06-05T06:04:13;17.63;;;13.45;;
69369;SDS011;56530;42.640;23.372;2023-06-05T06:06:40;17.88;;;13.55;;
69369;SDS011;56530;42.640;23.372;2023-06-05T06:09:06;14.43;;;12.93;;
69369;SDS011;56530;42.640;23.372;2023-06-05T06:11:33;15.02;;;13.52;;
69369;SDS011;56530;42.640;23.372;2023-06-05T06:14:00;14.82;;;13.27;;
69369;SDS011;56530;42.640;23.372;2023-06-05T06:16:26;16.17;;;13.33;;
69369;SDS011;56530;42.640;23.372;2023-06-05T06:18:52;15.03;;;13.43;;
69369;SDS011;56530;42.640;23.372;2023-06-05T06:21:18;17.60;;;13.07;;
69369;SDS011;56530;42.640;23.372;2023-06-05T06:23:43;15.27;;;13.68;;
69369;SDS011;56530;42.640;23.372;2023-06-05T06:26:10;14.95;;;13.43;;
69369;SDS011;56530;42.640;23.372;2023-06-05T06:28:36;14.48;;;12.85;;
69369;SDS011;56530;42.640;23.372;2023-06-05T06:31:02;14.43;;;12.93;;
69369;SDS011;56530;42.640;23.372;2023-06-05T06:33:28;15.30;;;13.73;;
69369;SDS011;56530;42.640;23.372;2023-06-05T06:35:54;15.52;;;13.93;;
69369;SDS011;56530;42.640;23.372;2023-06-05T06:38:20;14.63;;;13.13;;
69369;SDS011;56530;42.640;23.372;2023-06-05T06:40:46;14.30;;;12.90;;
69369;SDS011;56530;42.640;23.372;2023-06-05T06:43:11;16.53;;;13.50;;
69369;SDS011;56530;42.640;23.372;2023-06-05T06:45:37;15.48;;;13.98;;
69369;SDS011;56530;42.640;23.372;2023-06-05T06:48:02;15.20;;;13.70;;
69369;SDS011;56530;42.640;23.372;2023-06-05T06:50:28;13.63;;;12.25;;
69369;SDS011;56530;42.640;23.372;2023-06-05T06:52:53;14.97;;;13.00;;
69369;SDS011;56530;42.640;23.372;2023-06-05T06:55:19;16.00;;;14.40;;
69369;SDS011;56530;42.640;23.372;2023-06-05T06:57:44;16.13;;;14.57;;
69369;SDS011;56530;42.640;23.372;2023-06-05T07:00:10;17.03;;;15.33;;
69369;SDS011;56530;42.640;23.372;2023-06-05T07:02:38;17.73;;;15.43;;
69369;SDS011;56530;42.640;23.372;2023-06-05T07:05:04;16.77;;;15.07;;
69369;SDS011;56530;42.640;23.372;2023-06-05T07:07:31;17.08;;;15.27;;
69369;SDS011;56530;42.640;23.372;2023-06-05T07:09:56;17.63;;;15.63;;
69369;SDS011;56530;42.640;23.372;2023-06-05T07:12:23;17.20;;;15.55;;
69369;SDS011;56530;42.640;23.372;2023-06-05T07:14:48;15.40;;;13.80;;
69369;SDS011;56530;42.640;23.372;2023-06-05T07:17:14;17.25;;;14.65;;
69369;SDS011;56530;42.640;23.372;2023-06-05T07:19:39;21.13;;;16.75;;
69369;SDS011;56530;42.640;23.372;2023-06-05T07:22:05;17.25;;;15.18;;
69369;SDS011;56530;42.640;23.372;2023-06-05T07:24:31;16.48;;;14.80;;
69369;SDS011;56530;42.640;23.372;2023-06-05T07:27:00;20.55;;;14.23;;
69369;SDS011;56530;42.640;23.372;2023-06-05T07:29:27;15.43;;;13.93;;
69369;SDS011;56530;42.640;23.372;2023-06-05T07:31:55;18.52;;;14.93;;
69369;SDS011;56530;42.640;23.372;2023-06-05T07:34:23;19.35;;;15.25;;
69369;SDS011;56530;42.640;23.372;2023-06-05T07:36:49;15.68;;;14.07;;
69369;SDS011;56530;42.640;23.372;2023-06-05T07:39:16;16.90;;;14.35;;
69369;SDS011;56530;42.640;23.372;2023-06-05T07:41:42;17.70;;;14.83;;
69369;SDS011;56530;42.640;23.372;2023-06-05T07:44:12;17.13;;;13.88;;
69369;SDS011;56530;42.640;23.372;2023-06-05T07:46:39;15.57;;;13.90;;
69369;SDS011;56530;42.640;23.372;2023-06-05T07:49:05;16.95;;;13.60;;
69369;SDS011;56530;42.640;23.372;2023-06-05T07:51:31;14.23;;;12.83;;
69369;SDS011;56530;42.640;23.372;2023-06-05T07:54:01;15.30;;;13.80;;
69369;SDS011;56530;42.640;23.372;2023-06-05T07:56:27;19.08;;;14.73;;
69369;SDS011;56530;42.640;23.372;2023-06-05T07:58:53;14.80;;;13.15;;
69369;SDS011;56530;42.640;23.372;2023-06-05T08:01:18;20.90;;;14.60;;
69369;SDS011;56530;42.640;23.372;2023-06-05T08:03:45;20.50;;;14.10;;
69369;SDS011;56530;42.640;23.372;2023-06-05T08:06:11;16.17;;;14.47;;
69369;SDS011;56530;42.640;23.372;2023-06-05T08:08:37;15.27;;;13.67;;
69369;SDS011;56530;42.640;23.372;2023-06-05T08:11:02;20.17;;;13.77;;
69369;SDS011;56530;42.640;23.372;2023-06-05T08:13:27;15.65;;;12.60;;
69369;SDS011;56530;42.640;23.372;2023-06-05T08:15:54;14.93;;;13.02;;
69369;SDS011;56530;42.640;23.372;2023-06-05T08:18:20;20.87;;;12.57;;
69369;SDS011;56530;42.640;23.372;2023-06-05T08:20:46;17.73;;;13.30;;
69369;SDS011;56530;42.640;23.372;2023-06-05T08:23:11;15.30;;;12.90;;
69369;SDS011;56530;42.640;23.372;2023-06-05T08:25:38;14.95;;;13.40;;
69369;SDS011;56530;42.640;23.372;2023-06-05T08:28:03;14.77;;;13.37;;
69369;SDS011;56530;42.640;23.372;2023-06-05T08:30:29;15.17;;;12.70;;
69369;SDS011;56530;42.640;23.372;2023-06-05T08:32:54;14.40;;;12.90;;
69369;SDS011;56530;42.640;23.372;2023-06-05T08:35:20;14.13;;;12.00;;
69369;SDS011;56530;42.640;23.372;2023-06-05T08:37:45;14.50;;;10.73;;
69369;SDS011;56530;42.640;23.372;2023-06-05T08:40:11;12.70;;;11.33;;
69369;SDS011;56530;42.640;23.372;2023-06-05T08:42:37;12.88;;;11.40;;
69369;SDS011;56530;42.640;23.372;2023-06-05T08:45:06;12.80;;;11.50;;
69369;SDS011;56530;42.640;23.372;2023-06-05T08:47:35;13.60;;;12.15;;
69369;SDS011;56530;42.640;23.372;2023-06-05T08:50:05;15.23;;;12.57;;
69369;SDS011;56530;42.640;23.372;2023-06-05T08:52:37;16.27;;;11.60;;
69369;SDS011;56530;42.640;23.372;2023-06-05T08:55:04;14.57;;;11.80;;
69369;SDS011;56530;42.640;23.372;2023-06-05T08:57:31;15.07;;;11.93;;
69369;SDS011;56530;42.640;23.372;2023-06-05T09:00:02;13.45;;;12.13;;
69369;SDS011;56530;42.640;23.372;2023-06-05T09:02:33;16.35;;;12.50;;
69369;SDS011;56530;42.640;23.372;2023-06-05T09:04:58;16.93;;;12.83;;
69369;SDS011;56530;42.640;23.372;2023-06-05T09:07:26;15.82;;;11.80;;
69369;SDS011;56530;42.640;23.372;2023-06-05T09:09:54;15.50;;;13.05;;
69369;SDS011;56530;42.640;23.372;2023-06-05T09:12:19;13.73;;;11.47;;
69369;SDS011;56530;42.640;23.372;2023-06-05T09:14:45;16.40;;;11.90;;
69369;SDS011;56530;42.640;23.372;2023-06-05T09:17:13;13.83;;;11.77;;
69369;SDS011;56530;42.640;23.372;2023-06-05T09:19:40;16.05;;;11.70;;
69369;SDS011;56530;42.640;23.372;2023-06-05T09:22:08;14.02;;;10.38;;
69369;SDS011;56530;42.640;23.372;2023-06-05T09:24:34;13.18;;;11.68;;
69369;SDS011;56530;42.640;23.372;2023-06-05T09:27:01;13.63;;;10.97;;
69369;SDS011;56530;42.640;23.372;2023-06-05T09:29:34;13.20;;;10.73;;
69369;SDS011;56530;42.640;23.372;2023-06-05T09:37:01;15.95;;;10.10;;
69369;SDS011;56530;42.640;23.372;2023-06-05T09:39:31;12.15;;;10.93;;
69369;SDS011;56530;42.640;23.372;2023-06-05T09:41:58;12.57;;;11.27;;
69369;SDS011;56530;42.640;23.372;2023-06-05T09:44:24;14.93;;;12.20;;
69369;SDS011;56530;42.640;23.372;2023-06-05T09:49:17;13.40;;;12.00;;
69369;SDS011;56530;42.640;23.372;2023-06-05T09:51:43;12.73;;;11.47;;
69369;SDS011;56530;42.640;23.372;2023-06-05T09:54:08;12.67;;;11.40;;
69369;SDS011;56530;42.640;23.372;2023-06-05T09:56:34;12.40;;;11.10;;
69369;SDS011;56530;42.640;23.372;2023-06-05T09:59:00;12.40;;;10.60;;
69369;SDS011;56530;42.640;23.372;2023-06-05T10:01:27;11.43;;;10.30;;
69369;SDS011;56530;42.640;23.372;2023-06-05T10:04:00;10.40;;;9.40;;
69369;SDS011;56530;42.640;23.372;2023-06-05T10:06:34;11.07;;;9.95;;
69369;SDS011;56530;42.640;23.372;2023-06-05T10:09:02;11.80;;;10.35;;
69369;SDS011;56530;42.640;23.372;2023-06-05T10:11:28;12.75;;;11.45;;
69369;SDS011;56530;42.640;23.372;2023-06-05T10:13:54;12.32;;;11.02;;
69369;SDS011;56530;42.640;23.372;2023-06-05T10:16:20;12.93;;;11.35;;
69369;SDS011;56530;42.640;23.372;2023-06-05T10:18:46;13.23;;;11.13;;
69369;SDS011;56530;42.640;23.372;2023-06-05T10:21:14;13.57;;;12.10;;
69369;SDS011;56530;42.640;23.372;2023-06-05T10:23:43;12.18;;;10.93;;
69369;SDS011;56530;42.640;23.372;2023-06-05T10:31:45;13.93;;;11.88;;
69369;SDS011;56530;42.640;23.372;2023-06-05T10:37:16;14.35;;;11.52;;
69369;SDS011;56530;42.640;23.372;2023-06-05T10:39:53;12.48;;;11.18;;
69369;SDS011;56530;42.640;23.372;2023-06-05T10:42:22;15.32;;;11.50;;
69369;SDS011;56530;42.640;23.372;2023-06-05T10:44:50;16.50;;;11.93;;
69369;SDS011;56530;42.640;23.372;2023-06-05T10:48:17;13.13;;;11.82;;
69369;SDS011;56530;42.640;23.372;2023-06-05T10:52:41;10.87;;;9.77;;
69369;SDS011;56530;42.640;23.372;2023-06-05T10:55:07;11.55;;;10.35;;
69369;SDS011;56530;42.640;23.372;2023-06-05T11:00:21;12.63;;;9.80;;
69369;SDS011;56530;42.640;23.372;2023-06-05T11:02:47;10.45;;;9.45;;
69369;SDS011;56530;42.640;23.372;2023-06-05T11:05:13;10.18;;;9.18;;
69369;SDS011;56530;42.640;23.372;2023-06-05T11:07:41;11.02;;;9.55;;
69369;SDS011;56530;42.640;23.372;2023-06-05T11:10:09;11.00;;;9.77;;
69369;SDS011;56530;42.640;23.372;2023-06-05T11:12:57;10.77;;;9.77;;
69369;SDS011;56530;42.640;23.372;2023-06-05T11:17:48;10.90;;;9.43;;
69369;SDS011;56530;42.640;23.372;2023-06-05T11:27:58;11.30;;;8.80;;
69369;SDS011;56530;42.640;23.372;2023-06-05T11:30:29;10.18;;;8.98;;
69369;SDS011;56530;42.640;23.372;2023-06-05T11:33:07;10.57;;;9.45;;
69369;SDS011;56530;42.640;23.372;2023-06-05T11:35:37;12.32;;;9.18;;
69369;SDS011;56530;42.640;23.372;2023-06-05T11:38:10;10.27;;;8.43;;
69369;SDS011;56530;42.640;23.372;2023-06-05T11:40:37;12.00;;;8.60;;
69369;SDS011;56530;42.640;23.372;2023-06-05T11:43:03;8.90;;;8.07;;
69369;SDS011;56530;42.640;23.372;2023-06-05T11:45:30;9.10;;;7.70;;
69369;SDS011;56530;42.640;23.372;2023-06-05T11:48:30;8.55;;;7.68;;
69369;SDS011;56530;42.640;23.372;2023-06-05T11:50:57;9.57;;;7.80;;
69369;SDS011;56530;42.640;23.372;2023-06-05T11:53:27;12.23;;;7.87;;
69369;SDS011;56530;42.640;23.372;2023-06-05T11:55:54;8.07;;;7.23;;
69369;SDS011;56530;42.640;23.372;2023-06-05T11:58:38;9.68;;;7.78;;
69369;SDS011;56530;42.640;23.372;2023-06-05T12:01:08;7.88;;;7.00;;
69369;SDS011;56530;42.640;23.372;2023-06-05T12:03:47;8.07;;;7.03;;
69369;SDS011;56530;42.640;23.372;2023-06-05T12:06:13;7.90;;;7.17;;
69369;SDS011;56530;42.640;23.372;2023-06-05T12:08:39;10.90;;;8.55;;
69369;SDS011;56530;42.640;23.372;2023-06-05T12:11:21;7.15;;;6.50;;
69369;SDS011;56530;42.640;23.372;2023-06-05T12:16:19;8.23;;;6.88;;
69369;SDS011;56530;42.640;23.372;2023-06-05T12:18:56;6.38;;;5.80;;
69369;SDS011;56530;42.640;23.372;2023-06-05T12:21:22;8.15;;;6.18;;
69369;SDS011;56530;42.640;23.372;2023-06-05T12:23:49;7.47;;;6.63;;
69369;SDS011;56530;42.640;23.372;2023-06-05T12:26:15;7.05;;;6.35;;
69369;SDS011;56530;42.640;23.372;2023-06-05T12:28:42;7.63;;;5.63;;
69369;SDS011;56530;42.640;23.372;2023-06-05T12:31:08;10.70;;;5.82;;
69369;SDS011;56530;42.640;23.372;2023-06-05T12:33:33;9.03;;;5.73;;
69369;SDS011;56530;42.640;23.372;2023-06-05T12:36:11;8.10;;;6.03;;
69369;SDS011;56530;42.640;23.372;2023-06-05T12:38:38;10.57;;;6.25;;
69369;SDS011;56530;42.640;23.372;2023-06-05T12:41:04;6.67;;;5.97;;
69369;SDS011;56530;42.640;23.372;2023-06-05T12:43:31;7.65;;;6.35;;
69369;SDS011;56530;42.640;23.372;2023-06-05T12:45:57;9.57;;;6.75;;
69369;SDS011;56530;42.640;23.372;2023-06-05T12:48:23;6.73;;;6.13;;
69369;SDS011;56530;42.640;23.372;2023-06-05T12:50:49;8.45;;;6.63;;
69369;SDS011;56530;42.640;23.372;2023-06-05T12:53:15;7.35;;;6.07;;
69369;SDS011;56530;42.640;23.372;2023-06-05T12:55:40;8.13;;;6.03;;
69369;SDS011;56530;42.640;23.372;2023-06-05T12:58:06;6.57;;;5.93;;
69369;SDS011;56530;42.640;23.372;2023-06-05T13:00:31;9.73;;;5.35;;
69369;SDS011;56530;42.640;23.372;2023-06-05T13:02:57;6.32;;;5.18;;
69369;SDS011;56530;42.640;23.372;2023-06-05T13:05:22;6.30;;;5.40;;
69369;SDS011;56530;42.640;23.372;2023-06-05T13:07:48;7.40;;;5.07;;
69369;SDS011;56530;42.640;23.372;2023-06-05T13:10:16;8.50;;;6.80;;
69369;SDS011;56530;42.640;23.372;2023-06-05T13:12:42;7.03;;;5.40;;
69369;SDS011;56530;42.640;23.372;2023-06-05T13:15:08;6.07;;;5.50;;
69369;SDS011;56530;42.640;23.372;2023-06-05T13:17:34;5.20;;;4.68;;
69369;SDS011;56530;42.640;23.372;2023-06-05T13:20:01;6.15;;;4.50;;
69369;SDS011;56530;42.640;23.372;2023-06-05T13:22:31;5.03;;;4.63;;
69369;SDS011;56530;42.640;23.372;2023-06-05T13:24:56;7.07;;;6.33;;
69369;SDS011;56530;42.640;23.372;2023-06-05T13:27:22;6.63;;;5.23;;
69369;SDS011;56530;42.640;23.372;2023-06-05T13:29:47;6.87;;;5.27;;
69369;SDS011;56530;42.640;23.372;2023-06-05T13:32:12;7.10;;;5.50;;
69369;SDS011;56530;42.640;23.372;2023-06-05T13:34:38;5.97;;;5.07;;
69369;SDS011;56530;42.640;23.372;2023-06-05T13:37:03;6.73;;;5.33;;
69369;SDS011;56530;42.640;23.372;2023-06-05T13:39:29;8.03;;;5.50;;
69369;SDS011;56530;42.640;23.372;2023-06-05T13:41:54;6.40;;;5.80;;
69369;SDS011;56530;42.640;23.372;2023-06-05T13:44:20;7.47;;;5.63;;
69369;SDS011;56530;42.640;23.372;2023-06-05T13:46:45;6.13;;;5.40;;
69369;SDS011;56530;42.640;23.372;2023-06-05T13:49:11;6.60;;;6.00;;
69369;SDS011;56530;42.640;23.372;2023-06-05T13:51:36;6.57;;;5.83;;
69369;SDS011;56530;42.640;23.372;2023-06-05T13:54:03;5.30;;;4.80;;
69369;SDS011;56530;42.640;23.372;2023-06-05T13:56:29;5.70;;;5.10;;
69369;SDS011;56530;42.640;23.372;2023-06-05T13:58:55;6.17;;;5.57;;
69369;SDS011;56530;42.640;23.372;2023-06-05T14:01:22;6.25;;;5.20;;
69369;SDS011;56530;42.640;23.372;2023-06-05T14:03:48;6.30;;;5.07;;
69369;SDS011;56530;42.640;23.372;2023-06-05T14:06:13;8.00;;;5.38;;
69369;SDS011;56530;42.640;23.372;2023-06-05T14:08:39;6.77;;;4.97;;
69369;SDS011;56530;42.640;23.372;2023-06-05T14:11:04;7.27;;;5.40;;
69369;SDS011;56530;42.640;23.372;2023-06-05T14:13:29;6.03;;;5.10;;
69369;SDS011;56530;42.640;23.372;2023-06-05T14:15:55;7.53;;;4.80;;
69369;SDS011;56530;42.640;23.372;2023-06-05T14:18:21;10.32;;;5.75;;
69369;SDS011;56530;42.640;23.372;2023-06-05T14:20:46;6.25;;;5.15;;
69369;SDS011;56530;42.640;23.372;2023-06-05T14:23:12;7.37;;;5.23;;
69369;SDS011;56530;42.640;23.372;2023-06-05T14:25:37;6.53;;;5.07;;
69369;SDS011;56530;42.640;23.372;2023-06-05T14:28:03;8.13;;;6.43;;
69369;SDS011;56530;42.640;23.372;2023-06-05T14:30:28;8.30;;;5.70;;
69369;SDS011;56530;42.640;23.372;2023-06-05T14:32:54;9.23;;;6.03;;
69369;SDS011;56530;42.640;23.372;2023-06-05T14:35:20;6.55;;;5.53;;
69369;SDS011;56530;42.640;23.372;2023-06-05T14:37:47;6.53;;;5.60;;
69369;SDS011;56530;42.640;23.372;2023-06-05T14:40:12;6.47;;;5.63;;
69369;SDS011;56530;42.640;23.372;2023-06-05T14:42:38;6.03;;;5.45;;
69369;SDS011;56530;42.640;23.372;2023-06-05T14:45:04;6.10;;;5.57;;
69369;SDS011;56530;42.640;23.372;2023-06-05T14:47:30;12.98;;;6.75;;
69369;SDS011;56530;42.640;23.372;2023-06-05T14:49:56;6.95;;;5.70;;
69369;SDS011;56530;42.640;23.372;2023-06-05T14:52:21;8.50;;;5.93;;
69369;SDS011;56530;42.640;23.372;2023-06-05T14:54:46;9.60;;;6.00;;
69369;SDS011;56530;42.640;23.372;2023-06-05T14:57:12;7.40;;;6.53;;
69369;SDS011;56530;42.640;23.372;2023-06-05T14:59:37;6.60;;;5.97;;